createdAt,value
2018-03-24T00:00:22.512Z,10.00
2018-03-24T00:02:50.279Z,11.03
2018-03-24T00:05:18.041Z,10.47
2018-03-24T00:07:45.703Z,9.90
2018-03-24T00:10:13.464Z,10.40
2018-03-24T00:12:41.084Z,9.87
2018-03-24T00:15:09.728Z,9.73
2018-03-24T00:17:37.376Z,10.37
2018-03-24T00:20:05.039Z,10.20
2018-03-24T00:22:32.694Z,10.60
2018-03-24T00:25:00.357Z,10.30
2018-03-24T00:27:28.223Z,10.10
2018-03-24T00:29:55.988Z,10.27
2018-03-24T00:32:23.651Z,10.70
2018-03-24T00:34:51.325Z,10.10
2018-03-24T00:37:18.981Z,9.40
2018-03-24T00:39:46.581Z,9.37
2018-03-24T00:42:14.202Z,9.80
2018-03-24T00:44:41.972Z,9.43
2018-03-24T00:47:09.728Z,8.87
2018-03-24T00:49:37.435Z,8.57
2018-03-24T00:52:05.048Z,7.93
2018-03-24T00:54:32.709Z,8.17
2018-03-24T00:57:00.472Z,7.70
2018-03-24T00:59:28.239Z,8.33
2018-03-24T01:01:55.906Z,8.23
2018-03-24T01:04:23.765Z,8.17
2018-03-24T01:06:51.533Z,7.90
2018-03-24T01:09:19.192Z,8.63
2018-03-24T01:11:46.858Z,8.57
2018-03-24T01:14:15.334Z,8.97
2018-03-24T01:16:42.893Z,8.87
2018-03-24T01:19:10.555Z,8.03
2018-03-24T01:21:38.114Z,7.57
2018-03-24T01:24:05.776Z,7.83
2018-03-24T01:26:33.336Z,7.17
2018-03-24T01:29:00.998Z,7.60
2018-03-24T01:31:29.581Z,7.80
2018-03-24T01:33:57.141Z,7.60
2018-03-24T01:36:24.914Z,8.43
2018-03-24T01:38:52.465Z,8.63
2018-03-24T01:41:20.125Z,9.07
2018-03-24T01:43:47.685Z,9.10
2018-03-24T01:46:15.349Z,8.63
2018-03-24T01:48:43.009Z,10.07
2018-03-24T01:51:10.619Z,11.30
2018-03-24T01:53:50.207Z,11.17
2018-03-24T01:56:17.872Z,10.57
2018-03-24T01:58:45.545Z,10.33
2018-03-24T02:01:13.194Z,10.73
2018-03-24T02:03:40.958Z,9.70
2018-03-24T02:06:08.634Z,10.60
2018-03-24T02:08:36.285Z,10.63
2018-03-24T02:11:04.045Z,11.23
2018-03-24T02:13:31.605Z,10.37
2018-03-24T02:15:59.267Z,10.43
2018-03-24T02:18:26.842Z,10.83
2018-03-24T02:20:54.449Z,9.83
2018-03-24T02:23:22.047Z,10.13
2018-03-24T02:25:49.860Z,10.60
2018-03-24T02:28:17.594Z,9.80
2018-03-24T02:30:45.257Z,9.90
2018-03-24T02:33:12.846Z,9.97
2018-03-24T02:35:40.581Z,9.00
2018-03-24T02:38:08.276Z,9.40
2018-03-24T02:40:36.393Z,10.03
2018-03-24T02:43:04.108Z,9.17
2018-03-24T02:45:31.743Z,8.80
2018-03-24T02:47:59.429Z,8.73
2018-03-24T02:50:27.078Z,9.20
2018-03-24T02:52:54.856Z,9.00
2018-03-24T02:55:22.356Z,9.73
2018-03-24T02:57:49.916Z,8.87
2018-03-24T03:00:17.429Z,9.83
2018-03-24T03:02:45.433Z,9.27
2018-03-24T03:05:12.924Z,8.70
2018-03-24T03:07:40.440Z,9.23
2018-03-24T03:10:07.954Z,9.80
2018-03-24T03:12:35.497Z,9.83
2018-03-24T03:15:02.991Z,10.30
2018-03-24T03:17:30.505Z,9.93
2018-03-24T03:19:57.997Z,9.17
2018-03-24T03:22:26.443Z,10.03
2018-03-24T03:24:54.082Z,9.97
2018-03-24T03:27:21.593Z,9.20
2018-03-24T03:29:49.136Z,9.07
2018-03-24T03:32:18.585Z,9.57
2018-03-24T03:34:46.095Z,9.73
2018-03-24T03:37:13.677Z,9.43
2018-03-24T03:39:41.196Z,9.13
2018-03-24T03:42:08.704Z,10.53
2018-03-24T03:44:36.231Z,11.17
2018-03-24T03:47:03.796Z,12.00
2018-03-24T03:49:31.321Z,21.70
2018-03-24T03:51:58.848Z,23.93
2018-03-24T03:54:26.392Z,22.63
2018-03-24T03:56:53.998Z,24.43
2018-03-24T03:59:21.535Z,21.30
2018-03-24T04:01:49.055Z,22.90
2018-03-24T04:04:16.603Z,20.73
2018-03-24T04:06:44.157Z,24.93
2018-03-24T04:09:11.723Z,23.83
2018-03-24T04:11:39.267Z,25.93
2018-03-24T04:14:06.799Z,20.50
2018-03-24T04:16:34.312Z,21.17
2018-03-24T04:19:01.873Z,22.57
2018-03-24T04:21:29.380Z,22.63
2018-03-24T04:23:56.896Z,20.53
2018-03-24T04:26:24.444Z,20.63
2018-03-24T04:28:51.972Z,19.80
2018-03-24T04:31:19.467Z,20.37
2018-03-24T04:33:47.024Z,20.87
2018-03-24T04:36:14.567Z,24.07
2018-03-24T04:38:42.101Z,25.07
2018-03-24T04:41:09.600Z,27.10
2018-03-24T04:43:37.123Z,26.13
2018-03-24T04:46:04.615Z,25.23
2018-03-24T04:48:32.177Z,27.83
2018-03-24T04:50:59.760Z,25.63
2018-03-24T04:53:27.303Z,25.73
2018-03-24T04:55:54.920Z,24.13
2018-03-24T04:58:22.420Z,26.27
2018-03-24T05:00:49.944Z,26.77
2018-03-24T05:03:17.556Z,23.57
2018-03-24T05:05:45.116Z,23.70
2018-03-24T05:08:12.640Z,26.47
2018-03-24T05:10:40.158Z,27.27
2018-03-24T05:13:07.672Z,25.67
2018-03-24T05:15:35.200Z,30.50
2018-03-24T05:18:02.695Z,25.73
2018-03-24T05:20:30.252Z,27.90
2018-03-24T05:22:57.780Z,24.30
2018-03-24T05:25:25.307Z,27.07
2018-03-24T05:27:52.804Z,23.73
2018-03-24T05:30:20.368Z,30.80
2018-03-24T05:32:47.870Z,26.73
2018-03-24T05:35:15.399Z,31.40
2018-03-24T05:37:42.891Z,28.47
2018-03-24T05:40:10.421Z,28.97
2018-03-24T05:42:37.979Z,28.80
2018-03-24T05:45:05.540Z,28.23
2018-03-24T05:47:33.043Z,29.77
2018-03-24T05:50:00.560Z,29.53
2018-03-24T05:52:28.061Z,27.13
2018-03-24T05:54:55.631Z,25.27
2018-03-24T05:57:23.191Z,23.63
2018-03-24T05:59:50.697Z,26.13
2018-03-24T06:02:18.268Z,21.03
2018-03-24T06:04:45.764Z,23.23
2018-03-24T06:07:13.307Z,23.90
2018-03-24T06:09:40.803Z,25.83
2018-03-24T06:12:08.329Z,24.60
2018-03-24T06:14:35.824Z,26.93
2018-03-24T06:17:03.389Z,26.37
2018-03-24T06:19:30.968Z,26.97
2018-03-24T06:21:58.489Z,22.40
2018-03-24T06:24:25.992Z,22.17
2018-03-24T06:26:53.507Z,23.80
2018-03-24T06:29:21.020Z,23.77
2018-03-24T06:31:52.009Z,22.13
2018-03-24T06:34:19.517Z,23.73
2018-03-24T06:36:47.328Z,25.30
2018-03-24T06:39:14.855Z,25.20
2018-03-24T06:41:42.396Z,21.93
2018-03-24T06:44:09.951Z,21.27
2018-03-24T06:46:37.502Z,19.00
2018-03-24T06:49:05.072Z,23.07
2018-03-24T06:51:32.589Z,19.77
2018-03-24T06:54:00.089Z,22.80
2018-03-24T06:56:27.657Z,26.63
2018-03-24T06:58:55.188Z,23.33
2018-03-24T07:01:22.708Z,24.03
2018-03-24T07:03:50.212Z,22.73
2018-03-24T07:06:17.756Z,22.63
2018-03-24T07:08:45.334Z,22.23
2018-03-24T07:11:12.840Z,23.80
2018-03-24T07:13:40.462Z,21.93
2018-03-24T07:16:07.951Z,22.03
2018-03-24T07:18:35.471Z,23.57
2018-03-24T07:21:02.980Z,22.70
2018-03-24T07:23:30.598Z,23.13
2018-03-24T07:25:58.156Z,22.63
2018-03-24T07:28:25.673Z,21.73
2018-03-24T07:30:53.167Z,22.80
2018-03-24T07:33:20.691Z,21.67
2018-03-24T07:35:48.266Z,21.17
2018-03-24T07:38:15.851Z,21.47
2018-03-24T07:40:43.344Z,22.23
2018-03-24T07:43:10.864Z,22.47
2018-03-24T07:45:38.362Z,21.27
2018-03-24T07:48:05.883Z,22.83
2018-03-24T07:50:33.388Z,21.80
2018-03-24T07:53:00.904Z,21.00
2018-03-24T07:55:28.481Z,21.07
2018-03-24T07:57:56.235Z,20.67
2018-03-24T08:00:23.723Z,21.90
2018-03-24T08:02:51.244Z,21.90
2018-03-24T08:05:18.744Z,21.10
2018-03-24T08:07:46.368Z,23.03
2018-03-24T08:10:13.945Z,24.03
2018-03-24T08:12:41.588Z,22.07
2018-03-24T08:15:09.160Z,23.00
2018-03-24T08:17:36.699Z,22.37
2018-03-24T08:20:04.188Z,23.47
2018-03-24T08:22:31.731Z,24.73
2018-03-24T08:24:59.223Z,23.27
2018-03-24T08:27:30.091Z,24.07
2018-03-24T08:29:57.783Z,24.43
2018-03-24T08:32:25.294Z,24.70
2018-03-24T08:34:52.857Z,23.73
2018-03-24T08:37:20.366Z,26.13
2018-03-24T08:39:47.920Z,24.47
2018-03-24T08:42:15.477Z,24.67
2018-03-24T08:44:43.027Z,23.53
2018-03-24T08:47:10.504Z,25.23
2018-03-24T08:49:38.020Z,23.70
2018-03-24T08:52:05.620Z,23.93
2018-03-24T08:54:33.139Z,23.33
2018-03-24T08:57:00.741Z,24.03
2018-03-24T08:59:28.264Z,24.03
2018-03-24T09:01:55.770Z,23.30
2018-03-24T09:04:23.291Z,22.80
2018-03-24T09:06:50.792Z,24.13
2018-03-24T09:09:18.337Z,24.03
2018-03-24T09:11:45.879Z,24.13
2018-03-24T09:14:13.410Z,23.63
2018-03-24T09:16:40.924Z,23.10
2018-03-24T09:19:08.467Z,22.37
2018-03-24T09:21:36.029Z,21.90
2018-03-24T09:24:03.597Z,23.03
2018-03-24T09:26:31.091Z,23.97
2018-03-24T09:28:58.616Z,24.43
2018-03-24T09:31:26.112Z,25.23
2018-03-24T09:33:53.655Z,26.07
2018-03-24T09:36:21.212Z,24.83
2018-03-24T09:38:48.743Z,24.47
2018-03-24T09:41:16.292Z,24.07
2018-03-24T09:43:43.797Z,23.83
2018-03-24T09:46:11.322Z,22.13
2018-03-24T09:48:38.828Z,24.07
2018-03-24T09:51:06.440Z,22.87
2018-03-24T09:53:34.124Z,20.63
2018-03-24T09:56:01.669Z,21.03
2018-03-24T09:58:29.164Z,22.33
2018-03-24T10:00:56.788Z,21.67
2018-03-24T10:03:24.304Z,22.13
2018-03-24T10:05:51.870Z,22.47
2018-03-24T10:08:19.467Z,21.93
2018-03-24T10:10:46.987Z,21.93
2018-03-24T10:13:14.493Z,22.67
2018-03-24T10:15:42.021Z,19.53
2018-03-24T10:18:09.540Z,21.33
2018-03-24T10:24:18.745Z,20.87
2018-03-24T10:26:46.288Z,20.27
2018-03-24T10:29:13.798Z,21.63
2018-03-24T10:31:41.451Z,20.20
2018-03-24T10:34:08.997Z,20.47
2018-03-24T10:36:36.556Z,20.08
2018-03-24T10:39:04.086Z,19.77
2018-03-24T10:41:31.610Z,20.05
2018-03-24T10:43:59.148Z,20.48
2018-03-24T10:46:26.693Z,20.75
2018-03-24T10:48:54.194Z,19.58
2018-03-24T10:51:21.811Z,19.58
2018-03-24T10:53:49.377Z,19.30
2018-03-24T10:56:16.955Z,19.23
2018-03-24T10:58:44.477Z,19.15
2018-03-24T11:01:13.951Z,17.83
2018-03-24T11:03:41.463Z,17.55
2018-03-24T11:06:08.980Z,17.08
2018-03-24T11:08:36.488Z,17.87
2018-03-24T11:11:04.040Z,15.55
2018-03-24T11:13:31.542Z,17.90
2018-03-24T11:15:59.074Z,15.77
2018-03-24T11:18:26.612Z,17.73
2018-03-24T11:20:54.146Z,16.62
2018-03-24T11:23:21.684Z,17.27
2018-03-24T11:25:49.210Z,15.77
2018-03-24T11:28:16.748Z,16.27
2018-03-24T11:30:45.243Z,15.85
2018-03-24T11:33:12.797Z,17.30
2018-03-24T11:35:40.307Z,16.17
2018-03-24T11:38:07.828Z,19.77
2018-03-24T11:40:35.379Z,18.08
2018-03-24T11:43:02.944Z,18.00
2018-03-24T11:45:30.476Z,16.77
2018-03-24T11:47:57.995Z,15.35
2018-03-24T11:50:25.614Z,15.90
2018-03-24T11:52:53.155Z,16.15
2018-03-24T11:55:20.654Z,15.88
2018-03-24T11:57:48.283Z,13.62
2018-03-24T12:00:15.790Z,14.20
2018-03-24T12:02:43.419Z,13.38
2018-03-24T12:05:10.982Z,13.18
2018-03-24T12:07:38.623Z,14.13
2018-03-24T12:10:06.119Z,12.45
2018-03-24T12:12:33.699Z,12.18
2018-03-24T12:15:01.214Z,13.65
2018-03-24T12:17:28.760Z,13.20
2018-03-24T12:19:56.261Z,11.55
2018-03-24T12:22:23.782Z,12.60
2018-03-24T12:24:51.297Z,11.30
2018-03-24T12:27:18.828Z,10.95
2018-03-24T12:29:46.328Z,10.80
2018-03-24T12:32:13.852Z,10.80
2018-03-24T12:34:41.385Z,10.60
2018-03-24T12:37:08.900Z,9.55
2018-03-24T12:39:36.456Z,9.93
2018-03-24T12:42:04.052Z,10.57
2018-03-24T12:44:31.553Z,10.75
2018-03-24T12:46:59.086Z,10.70
2018-03-24T12:49:26.636Z,10.90
2018-03-24T12:51:54.139Z,9.88
2018-03-24T12:54:21.657Z,10.27
2018-03-24T12:56:49.223Z,10.05
2018-03-24T12:59:16.829Z,9.50
2018-03-24T13:01:44.332Z,9.45
2018-03-24T13:04:11.843Z,8.80
2018-03-24T13:06:39.337Z,9.40
2018-03-24T13:09:06.906Z,9.13
2018-03-24T13:11:34.576Z,9.32
2018-03-24T13:14:02.160Z,9.02
2018-03-24T13:16:29.622Z,8.80
2018-03-24T13:18:57.239Z,8.77
2018-03-24T13:21:24.812Z,8.70
2018-03-24T13:23:52.381Z,8.45
2018-03-24T13:26:19.876Z,9.77
2018-03-24T13:28:47.395Z,8.65
2018-03-24T13:31:14.902Z,7.82
2018-03-24T13:33:42.511Z,8.43
2018-03-24T13:36:10.007Z,8.02
2018-03-24T13:38:37.520Z,8.32
2018-03-24T13:41:05.116Z,8.10
2018-03-24T13:43:32.651Z,8.18
2018-03-24T13:46:00.176Z,8.60
2018-03-24T13:48:27.768Z,9.25
2018-03-24T13:50:55.334Z,8.65
2018-03-24T13:53:22.871Z,8.45
2018-03-24T13:55:50.370Z,8.65
2018-03-24T13:58:17.902Z,7.80
2018-03-24T14:00:45.421Z,8.88
2018-03-24T14:03:12.916Z,9.50
2018-03-24T14:05:40.468Z,9.40
2018-03-24T14:08:07.961Z,9.23
2018-03-24T14:10:35.476Z,8.70
2018-03-24T14:13:03.065Z,8.52
2018-03-24T14:15:30.670Z,8.73
2018-03-24T14:17:58.180Z,8.68
2018-03-24T14:20:25.731Z,10.52
2018-03-24T14:22:53.288Z,9.40
2018-03-24T14:25:20.844Z,9.13
2018-03-24T14:27:48.407Z,8.98
2018-03-24T14:30:16.086Z,9.85
2018-03-24T14:32:43.612Z,8.68
2018-03-24T14:35:11.151Z,8.88
2018-03-24T14:37:38.675Z,9.15
2018-03-24T14:40:06.204Z,8.57
2018-03-24T14:42:33.783Z,9.48
2018-03-24T14:45:01.553Z,8.65
2018-03-24T14:47:29.060Z,9.35
2018-03-24T14:49:56.614Z,8.48
2018-03-24T14:52:24.113Z,8.88
2018-03-24T14:54:51.685Z,8.98
2018-03-24T14:57:20.208Z,8.48
2018-03-24T14:59:47.740Z,7.62
2018-03-24T15:02:15.271Z,8.48
2018-03-24T15:04:57.674Z,8.70
2018-03-24T15:13:34.500Z,8.27
2018-03-24T15:16:05.338Z,8.13
2018-03-24T15:18:37.248Z,8.70
2018-03-24T15:21:05.371Z,8.77
2018-03-24T15:26:42.413Z,9.27
2018-03-24T15:29:27.218Z,8.17
2018-03-24T15:32:11.238Z,9.03
2018-03-24T15:34:54.063Z,8.70
2018-03-24T15:37:31.204Z,9.10
2018-03-24T15:40:03.433Z,9.13
2018-03-24T15:42:39.153Z,9.10
2018-03-24T15:45:12.005Z,8.30
2018-03-24T15:47:41.986Z,9.13
2018-03-24T15:50:13.985Z,9.17
2018-03-24T15:58:00.026Z,9.30
2018-03-24T16:03:07.110Z,8.43
2018-03-24T16:05:45.068Z,9.30
2018-03-24T16:08:16.983Z,8.77
2018-03-24T16:10:45.356Z,8.50
2018-03-24T16:13:14.512Z,9.00
2018-03-24T16:16:04.299Z,9.80
2018-03-24T16:18:45.297Z,8.80
2018-03-24T16:21:36.021Z,8.57
2018-03-24T16:24:19.545Z,9.67
2018-03-24T16:27:03.377Z,9.13
2018-03-24T16:29:41.193Z,10.67
2018-03-24T16:32:19.314Z,10.00
2018-03-24T17:11:13.540Z,9.43
2018-03-24T17:13:42.453Z,10.00
2018-03-24T17:16:11.150Z,9.23
2018-03-24T17:18:39.465Z,9.23
2018-03-24T17:21:08.164Z,9.97
2018-03-24T17:23:39.412Z,10.87
2018-03-24T17:26:07.554Z,11.90
2018-03-24T17:28:35.935Z,13.73
2018-03-24T17:31:06.167Z,13.30
2018-03-24T17:33:35.777Z,12.03
2018-03-24T17:36:06.071Z,15.83
2018-03-24T17:38:35.739Z,9.40
2018-03-24T17:41:04.120Z,9.60
2018-03-24T17:43:35.496Z,10.23
2018-03-24T17:46:04.438Z,10.13
2018-03-24T17:48:33.274Z,9.77
2018-03-24T17:51:01.582Z,10.10
2018-03-24T17:53:30.451Z,11.17
2018-03-24T17:56:08.454Z,11.53
2018-03-24T17:58:39.186Z,14.00
2018-03-24T18:01:08.449Z,15.57
2018-03-24T18:03:38.929Z,15.37
2018-03-24T18:06:08.567Z,11.43
2018-03-24T18:08:42.894Z,12.20
2018-03-24T18:11:12.642Z,11.70
2018-03-24T18:13:42.185Z,12.10
2018-03-24T18:16:12.094Z,14.53
2018-03-24T18:18:40.628Z,13.77
2018-03-24T18:21:12.268Z,14.50
2018-03-24T18:23:41.581Z,16.10
2018-03-24T18:26:10.205Z,19.30
2018-03-24T18:28:38.640Z,18.57
2018-03-24T18:31:08.177Z,21.87
2018-03-24T18:33:39.544Z,22.20
2018-03-24T18:36:07.551Z,17.80
2018-03-24T18:38:38.343Z,18.13
2018-03-24T18:41:06.405Z,16.57
2018-03-24T18:43:37.582Z,17.80
2018-03-24T18:46:06.027Z,16.10
2018-03-24T18:48:34.674Z,15.80
2018-03-24T18:51:05.852Z,15.63
2018-03-24T18:53:37.069Z,13.97
2018-03-24T18:56:06.254Z,13.70
2018-03-24T19:01:29.005Z,22.67
2018-03-24T19:04:05.955Z,19.77
2018-03-24T19:06:33.791Z,21.97
2018-03-24T19:09:01.298Z,23.97
2018-03-24T19:11:28.893Z,23.07
2018-03-24T19:13:56.392Z,20.77
2018-03-24T19:16:23.913Z,23.73
2018-03-24T19:18:51.465Z,34.23
2018-03-24T19:21:20.032Z,28.90
2018-03-24T19:23:47.528Z,28.27
2018-03-24T19:26:15.083Z,37.23
2018-03-24T19:28:42.590Z,29.67
2018-03-24T19:31:10.180Z,28.63
2018-03-24T19:33:37.683Z,26.60
2018-03-24T19:36:05.204Z,23.53
2018-03-24T19:38:32.712Z,22.70
2018-03-24T19:41:00.235Z,22.07
2018-03-24T19:43:27.764Z,19.90
2018-03-24T19:45:55.452Z,19.70
2018-03-24T19:48:23.000Z,19.83
2018-03-24T19:50:50.532Z,20.33
2018-03-24T19:53:18.098Z,20.40
2018-03-24T19:55:45.632Z,21.77
2018-03-24T19:58:13.260Z,21.03
2018-03-24T20:00:40.819Z,20.70
2018-03-24T20:03:08.480Z,19.57
2018-03-24T20:05:36.240Z,19.50
2018-03-24T20:08:03.741Z,20.27
2018-03-24T20:10:31.256Z,21.17
2018-03-24T20:13:00.168Z,20.83
2018-03-24T20:15:27.920Z,22.07
2018-03-24T20:17:55.514Z,23.10
2018-03-24T20:20:23.100Z,23.50
2018-03-24T20:22:50.628Z,22.83
2018-03-24T20:25:18.158Z,20.50
2018-03-24T20:27:45.839Z,19.63
2018-03-24T20:30:13.375Z,18.27
2018-03-24T20:32:40.932Z,18.47
2018-03-24T20:35:08.434Z,18.50
2018-03-24T20:37:36.040Z,18.47
2018-03-24T20:40:03.619Z,18.60
2018-03-24T20:42:31.158Z,20.83
2018-03-24T20:44:58.716Z,19.53
2018-03-24T20:47:26.272Z,18.97
2018-03-24T20:49:53.773Z,18.37
2018-03-24T20:52:21.314Z,20.67
2018-03-24T20:54:48.909Z,20.13
2018-03-24T20:57:16.461Z,18.50
2018-03-24T20:59:43.987Z,19.00
2018-03-24T21:02:11.565Z,19.50
2018-03-24T21:04:39.064Z,20.10
2018-03-24T21:07:06.629Z,19.03
2018-03-24T21:09:34.333Z,23.37
2018-03-24T21:12:02.930Z,18.57
2018-03-24T21:14:30.566Z,18.87
2018-03-24T21:16:58.124Z,18.13
2018-03-24T21:19:25.797Z,16.93
2018-03-24T21:21:54.264Z,17.57
2018-03-24T21:24:21.807Z,18.47
2018-03-24T21:26:49.320Z,16.97
2018-03-24T21:29:16.848Z,16.77
2018-03-24T21:31:44.354Z,16.50
2018-03-24T21:34:11.884Z,16.77
2018-03-24T21:36:39.420Z,17.53
2018-03-24T21:39:06.981Z,16.43
2018-03-24T21:41:34.668Z,17.67
2018-03-24T21:44:02.344Z,18.27
2018-03-24T21:46:29.849Z,20.03
2018-03-24T21:48:57.367Z,32.30
2018-03-24T21:51:24.876Z,23.07
2018-03-24T21:53:52.458Z,23.53
2018-03-24T21:56:19.992Z,20.93
2018-03-24T21:58:47.562Z,20.40
2018-03-24T22:01:15.132Z,20.10
2018-03-24T22:03:42.671Z,21.50
2018-03-24T22:06:10.175Z,20.43
2018-03-24T22:08:37.807Z,21.87
2018-03-24T22:11:05.337Z,22.27
2018-03-24T22:13:32.872Z,22.20
2018-03-24T22:16:00.392Z,20.07
2018-03-24T22:18:27.932Z,18.93
2018-03-24T22:20:55.513Z,18.00
2018-03-24T22:23:24.791Z,17.70
2018-03-24T22:25:52.366Z,18.60
2018-03-24T22:28:19.880Z,17.27
2018-03-24T22:30:47.435Z,16.93
2018-03-24T22:33:15.899Z,17.47
2018-03-24T22:35:43.504Z,17.40
2018-03-24T22:38:11.016Z,18.13
2018-03-24T22:40:38.582Z,18.33
2018-03-24T22:43:06.254Z,17.63
2018-03-24T22:45:33.783Z,18.47
2018-03-24T22:48:01.291Z,16.37
2018-03-24T22:50:28.820Z,15.07
2018-03-24T22:52:56.312Z,16.43
2018-03-24T22:55:23.940Z,15.70
2018-03-24T22:57:51.535Z,13.67
2018-03-24T23:00:19.065Z,14.57
2018-03-24T23:02:46.580Z,12.60
2018-03-24T23:05:14.146Z,12.07
2018-03-24T23:07:41.650Z,13.20
2018-03-24T23:12:36.244Z,15.30
2018-03-24T23:15:03.878Z,17.30
2018-03-24T23:17:31.377Z,19.87
2018-03-24T23:19:58.985Z,15.20
2018-03-24T23:22:26.538Z,12.93
2018-03-24T23:24:54.060Z,15.27
2018-03-24T23:27:21.594Z,14.73
2018-03-24T23:29:49.120Z,13.17
2018-03-24T23:32:16.643Z,13.47
2018-03-24T23:34:44.135Z,13.50
2018-03-24T23:37:13.589Z,12.63
2018-03-24T23:39:41.101Z,12.97
2018-03-24T23:42:08.615Z,12.73
2018-03-24T23:44:36.108Z,12.47
2018-03-24T23:47:03.623Z,12.47
2018-03-24T23:49:31.124Z,13.43
2018-03-24T23:51:58.632Z,12.67
2018-03-24T23:54:26.119Z,13.00
2018-03-24T23:56:53.985Z,12.83
2018-03-24T23:59:21.488Z,12.17
